createdAt,value
2017-07-21T00:00:07.000Z,95714
2017-07-21T00:02:41.931Z,95709
2017-07-21T00:05:16.747Z,95716
2017-07-21T00:07:51.855Z,95725
2017-07-21T00:10:26.859Z,95711
2017-07-21T00:13:01.657Z,95718
2017-07-21T00:15:36.575Z,95715
2017-07-21T00:18:11.598Z,95708
2017-07-21T00:20:46.601Z,95720
2017-07-21T00:23:21.399Z,95718
2017-07-21T00:25:58.472Z,95720
2017-07-21T00:28:34.265Z,95726
2017-07-21T00:31:09.158Z,95727
2017-07-21T00:33:44.227Z,95731
2017-07-21T00:36:19.227Z,95729
2017-07-21T00:38:54.172Z,95729
2017-07-21T00:41:29.020Z,95736
2017-07-21T00:44:03.987Z,95731
2017-07-21T00:46:38.982Z,95729
2017-07-21T00:49:13.938Z,95722
2017-07-21T00:51:48.747Z,95728
2017-07-21T00:54:51.118Z,95724
2017-07-21T00:57:26.088Z,95722
2017-07-21T01:00:01.231Z,95719
2017-07-21T01:02:36.139Z,95795
2017-07-21T01:05:11.208Z,95709
2017-07-21T01:07:46.294Z,95715
2017-07-21T01:10:21.031Z,95711
2017-07-21T01:12:56.004Z,95717
2017-07-21T01:15:30.911Z,95711
2017-07-21T01:18:05.880Z,95714
2017-07-21T01:20:40.787Z,95703
2017-07-21T01:23:15.614Z,95700
2017-07-21T01:25:51.307Z,95706
2017-07-21T01:28:27.071Z,95707
2017-07-21T01:31:02.038Z,95702
2017-07-21T01:33:43.451Z,95699
2017-07-21T01:36:18.454Z,95701
2017-07-21T01:38:54.048Z,95704
2017-07-21T01:41:28.923Z,95701
2017-07-21T01:44:03.851Z,95699
2017-07-21T01:46:38.691Z,95703
2017-07-21T01:49:14.303Z,95698
2017-07-21T01:51:50.012Z,95699
2017-07-21T01:54:25.074Z,95708
2017-07-21T01:56:59.887Z,95704
2017-07-21T01:59:34.880Z,95696
2017-07-21T02:02:09.876Z,95703
2017-07-21T02:04:44.836Z,95709
2017-07-21T02:07:19.767Z,95693
2017-07-21T02:09:54.549Z,95688
2017-07-21T02:12:30.380Z,95692
2017-07-21T02:15:05.442Z,95690
2017-07-21T02:17:41.085Z,95694
2017-07-21T02:20:16.041Z,95687
2017-07-21T02:22:51.292Z,95696
2017-07-21T02:25:26.924Z,95707
2017-07-21T02:28:01.915Z,95699
2017-07-21T02:30:36.905Z,95697
2017-07-21T02:33:12.863Z,95688
2017-07-21T02:35:47.816Z,95686
2017-07-21T02:38:22.745Z,95698
2017-07-21T02:40:57.777Z,95692
2017-07-21T02:43:32.671Z,95693
2017-07-21T02:46:07.711Z,95689
2017-07-21T02:48:42.533Z,95684
2017-07-21T02:51:17.472Z,95677
2017-07-21T02:53:52.412Z,95682
2017-07-21T02:56:27.412Z,95685
2017-07-21T02:59:02.472Z,95683
2017-07-21T03:01:37.415Z,95670
2017-07-21T03:04:13.016Z,95677
2017-07-21T03:06:48.010Z,95689
2017-07-21T03:09:23.807Z,95685
2017-07-21T03:11:58.856Z,95691
2017-07-21T03:14:33.678Z,95685
2017-07-21T03:17:08.683Z,95685
2017-07-21T03:19:43.708Z,95684
2017-07-21T03:22:18.619Z,95683
2017-07-21T03:24:53.439Z,95682
2017-07-21T03:27:28.255Z,95680
2017-07-21T03:30:03.277Z,95678
2017-07-21T03:32:38.104Z,95673
2017-07-21T03:35:13.084Z,95683
2017-07-21T03:37:48.056Z,95675
2017-07-21T03:40:22.899Z,95673
2017-07-21T03:42:57.849Z,95677
2017-07-21T03:45:32.809Z,95676
2017-07-21T03:48:07.826Z,95677
2017-07-21T03:50:42.732Z,95681
2017-07-21T03:53:17.703Z,95678
2017-07-21T03:55:52.515Z,95690
2017-07-21T03:58:27.464Z,95696
2017-07-21T04:01:03.298Z,95697
2017-07-21T04:03:38.282Z,95707
2017-07-21T04:06:13.842Z,95697
2017-07-21T04:08:52.616Z,95694
2017-07-21T04:11:27.379Z,95698
2017-07-21T04:14:02.364Z,95695
2017-07-21T04:16:37.295Z,95696
2017-07-21T04:19:12.213Z,95693
2017-07-21T04:21:47.035Z,95687
2017-07-21T04:24:21.901Z,95688
2017-07-21T04:26:56.802Z,95681
2017-07-21T04:29:31.768Z,95685
2017-07-21T04:32:06.764Z,95689
2017-07-21T04:34:41.686Z,95686
2017-07-21T04:37:17.542Z,95681
2017-07-21T04:39:52.433Z,95677
2017-07-21T04:42:27.640Z,95686
2017-07-21T04:45:05.867Z,95679
2017-07-21T04:47:40.772Z,95680
2017-07-21T04:50:15.710Z,95684
2017-07-21T04:52:51.421Z,95681
2017-07-21T04:55:26.264Z,95686
2017-07-21T04:58:22.107Z,95677
2017-07-21T05:00:56.924Z,95671
2017-07-21T05:03:31.835Z,95670
2017-07-21T05:06:06.771Z,95677
2017-07-21T05:08:45.239Z,95680
2017-07-21T05:11:21.110Z,95679
2017-07-21T05:13:55.943Z,95679
2017-07-21T05:16:30.920Z,95681
2017-07-21T05:19:05.823Z,95680
2017-07-21T05:21:41.411Z,95685
2017-07-21T05:24:16.292Z,95684
2017-07-21T05:26:51.091Z,95678
2017-07-21T05:29:26.172Z,95680
2017-07-21T05:32:09.680Z,95682
2017-07-21T05:34:45.291Z,95695
2017-07-21T05:37:20.318Z,95694
2017-07-21T05:39:57.221Z,95695
2017-07-21T05:42:32.167Z,95824
2017-07-21T05:45:07.111Z,95682
2017-07-21T05:47:42.048Z,95688
2017-07-21T05:50:17.024Z,95685
2017-07-21T05:52:51.938Z,95678
2017-07-21T05:55:26.950Z,95691
2017-07-21T05:58:13.397Z,95687
2017-07-21T06:00:48.417Z,95692
2017-07-21T06:03:23.363Z,95696
2017-07-21T06:05:58.148Z,95693
2017-07-21T06:08:33.942Z,95700
2017-07-21T06:11:09.871Z,95707
2017-07-21T06:13:44.896Z,95701
2017-07-21T06:16:19.850Z,95703
2017-07-21T06:18:54.751Z,95704
2017-07-21T06:21:29.580Z,95707
2017-07-21T06:24:04.563Z,95711
2017-07-21T06:26:39.376Z,95708
2017-07-21T06:29:15.131Z,95708
2017-07-21T06:31:50.867Z,95706
2017-07-21T06:34:25.795Z,95709
2017-07-21T06:37:00.723Z,95706
2017-07-21T06:39:35.557Z,95714
2017-07-21T06:42:10.577Z,95722
2017-07-21T06:44:45.449Z,95718
2017-07-21T06:47:20.256Z,95722
2017-07-21T06:49:55.173Z,95718
2017-07-21T06:52:30.088Z,95716
2017-07-21T06:55:05.690Z,95709
2017-07-21T06:57:40.554Z,95724
2017-07-21T07:00:15.497Z,95718
2017-07-21T07:02:50.471Z,95711
2017-07-21T07:05:25.314Z,95711
2017-07-21T07:08:00.120Z,95710
2017-07-21T07:10:35.129Z,95708
2017-07-21T07:13:10.108Z,95700
2017-07-21T07:15:44.908Z,95722
2017-07-21T07:18:19.840Z,95701
2017-07-21T07:20:54.756Z,95696
2017-07-21T07:23:29.603Z,95700
2017-07-21T07:26:04.582Z,95699
2017-07-21T07:28:39.446Z,95697
2017-07-21T07:31:14.404Z,95698
2017-07-21T07:33:49.267Z,95699
2017-07-21T07:36:24.269Z,95693
2017-07-21T07:38:59.817Z,95700
2017-07-21T07:41:34.889Z,95692
2017-07-21T07:44:09.803Z,95693
2017-07-21T07:46:44.615Z,95688
2017-07-21T07:49:19.434Z,95688
2017-07-21T07:51:54.401Z,95676
2017-07-21T07:54:29.387Z,95685
2017-07-21T07:57:04.347Z,95677
2017-07-21T07:59:39.356Z,95675
2017-07-21T08:02:14.367Z,95678
2017-07-21T08:04:49.387Z,95672
2017-07-21T08:07:24.385Z,95678
2017-07-21T08:09:59.292Z,95672
2017-07-21T08:12:34.288Z,95682
2017-07-21T08:15:09.201Z,95682
2017-07-21T08:17:44.024Z,95680
2017-07-21T08:20:18.964Z,95678
2017-07-21T08:22:53.764Z,95679
2017-07-21T08:25:28.643Z,95690
2017-07-21T08:28:03.539Z,95681
2017-07-21T08:30:38.437Z,95680
2017-07-21T08:33:13.384Z,95682
2017-07-21T08:35:48.191Z,95683
2017-07-21T08:38:23.771Z,95682
2017-07-21T08:40:58.867Z,95674
2017-07-21T08:43:33.855Z,95678
2017-07-21T08:46:08.660Z,95674
2017-07-21T08:48:43.472Z,95671
2017-07-21T08:51:18.500Z,95675
2017-07-21T08:53:53.355Z,95674
2017-07-21T08:56:28.191Z,95672
2017-07-21T08:59:03.743Z,95666
2017-07-21T09:01:38.672Z,95664
2017-07-21T09:04:13.536Z,95664
2017-07-21T09:06:48.319Z,95659
2017-07-21T09:09:23.118Z,95659
2017-07-21T09:11:58.131Z,95658
2017-07-21T09:14:33.119Z,95650
2017-07-21T09:17:08.657Z,95664
2017-07-21T09:19:43.731Z,95658
2017-07-21T09:22:18.537Z,95659
2017-07-21T09:24:53.436Z,95652
2017-07-21T09:27:28.272Z,95652
2017-07-21T09:30:03.121Z,95657
2017-07-21T09:32:38.044Z,95656
2017-07-21T09:35:12.857Z,95660
2017-07-21T09:37:47.766Z,95653
2017-07-21T09:40:22.652Z,95651
2017-07-21T09:42:57.519Z,95650
2017-07-21T09:45:32.515Z,95645
2017-07-21T09:48:08.053Z,95645
2017-07-21T09:50:42.992Z,95637
2017-07-21T09:53:19.769Z,95639
2017-07-21T09:55:54.655Z,95640
2017-07-21T09:58:29.591Z,95629
2017-07-21T10:01:04.566Z,95634
2017-07-21T10:03:39.397Z,95635
2017-07-21T10:06:14.356Z,95626
2017-07-21T10:08:49.155Z,95631
2017-07-21T10:11:23.978Z,95627
2017-07-21T10:13:58.824Z,95623
2017-07-21T10:16:33.709Z,95625
2017-07-21T10:19:08.628Z,95628
2017-07-21T10:21:43.606Z,95616
2017-07-21T10:24:28.962Z,95617
2017-07-21T10:27:04.031Z,95623
2017-07-21T10:29:38.832Z,95616
2017-07-21T10:32:13.747Z,95636
2017-07-21T10:34:48.712Z,95606
2017-07-21T10:37:23.555Z,95608
2017-07-21T10:39:58.375Z,95601
2017-07-21T10:42:33.230Z,95605
2017-07-21T10:45:08.131Z,95601
2017-07-21T10:47:43.880Z,95599
2017-07-21T10:50:18.998Z,95600
2017-07-21T10:52:54.214Z,95597
2017-07-21T10:55:29.195Z,95594
2017-07-21T10:58:04.200Z,95603
2017-07-21T11:00:39.119Z,95597
2017-07-21T11:03:13.940Z,95592
2017-07-21T11:05:48.932Z,95589
2017-07-21T11:08:23.824Z,95589
2017-07-21T11:10:58.719Z,95593
2017-07-21T11:13:33.756Z,95585
2017-07-21T11:16:08.679Z,95577
2017-07-21T11:18:44.341Z,95575
2017-07-21T11:21:19.187Z,95576
2017-07-21T11:23:54.888Z,95570
2017-07-21T11:26:29.783Z,95570
2017-07-21T11:29:04.841Z,95569
2017-07-21T11:31:39.735Z,95568
2017-07-21T11:34:14.671Z,95563
2017-07-21T11:36:49.537Z,95567
2017-07-21T11:39:24.520Z,95555
2017-07-21T11:41:59.310Z,95557
2017-07-21T11:44:35.055Z,95556
2017-07-21T11:47:10.090Z,95573
2017-07-21T11:49:45.537Z,95556
2017-07-21T11:52:20.508Z,95561
2017-07-21T11:54:56.443Z,95553
2017-07-21T12:00:38.754Z,95548
2017-07-21T12:03:13.649Z,95545
2017-07-21T12:05:48.953Z,95540
2017-07-21T12:08:23.910Z,95536
2017-07-21T12:10:58.762Z,95542
2017-07-21T12:13:35.675Z,95535
2017-07-21T12:16:14.980Z,95535
2017-07-21T12:18:50.251Z,95534
2017-07-21T12:21:25.999Z,95535
2017-07-21T12:24:01.577Z,95533
2017-07-21T12:26:42.394Z,95531
2017-07-21T12:29:18.442Z,95531
2017-07-21T12:32:00.083Z,95532
2017-07-21T12:34:34.911Z,95535
2017-07-21T12:37:10.305Z,95534
2017-07-21T12:39:45.147Z,95526
2017-07-21T12:42:20.264Z,95541
2017-07-21T12:44:55.343Z,95524
2017-07-21T12:47:30.329Z,95516
2017-07-21T12:50:05.172Z,95509
2017-07-21T12:52:40.148Z,95517
2017-07-21T12:55:15.112Z,95528
2017-07-21T12:57:51.711Z,95522
2017-07-21T13:00:26.667Z,95515
2017-07-21T13:03:04.742Z,95512
2017-07-21T13:05:39.934Z,95509
2017-07-21T13:08:14.864Z,95504
2017-07-21T13:10:49.775Z,95502
2017-07-21T13:13:24.717Z,95500
2017-07-21T13:15:59.616Z,95495
2017-07-21T13:18:34.417Z,95502
2017-07-21T13:21:09.194Z,95497
2017-07-21T13:23:44.148Z,95489
2017-07-21T13:26:18.969Z,95487
2017-07-21T13:28:53.927Z,95498
2017-07-21T13:31:28.859Z,95494
2017-07-21T13:34:03.730Z,95494
2017-07-21T13:36:38.791Z,95493
2017-07-21T13:39:13.717Z,95487
2017-07-21T13:41:48.703Z,95494
2017-07-21T13:44:23.663Z,95494
2017-07-21T13:46:58.587Z,95486
2017-07-21T13:49:33.410Z,95485
2017-07-21T13:52:08.343Z,95485
2017-07-21T13:54:43.293Z,95489
2017-07-21T13:57:18.242Z,95489
2017-07-21T13:59:53.272Z,95489
2017-07-21T14:02:28.196Z,95487
2017-07-21T14:05:03.210Z,95480
2017-07-21T14:07:38.116Z,95466
2017-07-21T14:10:13.688Z,95473
2017-07-21T14:12:48.600Z,95474
2017-07-21T14:15:23.627Z,95468
2017-07-21T14:17:58.565Z,95464
2017-07-21T14:20:33.524Z,95473
2017-07-21T14:23:08.291Z,95470
2017-07-21T14:25:43.289Z,95466
2017-07-21T14:28:18.183Z,95467
2017-07-21T14:30:53.211Z,95467
2017-07-21T14:33:28.131Z,95465
2017-07-21T14:36:03.120Z,95458
2017-07-21T14:38:38.108Z,95444
2017-07-21T14:41:12.960Z,95441
2017-07-21T14:43:47.968Z,95448
2017-07-21T14:46:24.506Z,95439
2017-07-21T14:48:59.317Z,95437
2017-07-21T14:51:34.145Z,95434
2017-07-21T14:54:09.093Z,95426
2017-07-21T14:56:44.108Z,95420
2017-07-21T14:59:19.053Z,95411
2017-07-21T15:01:54.059Z,95409
2017-07-21T15:04:28.975Z,95407
2017-07-21T15:07:04.798Z,95410
2017-07-21T15:09:39.719Z,95395
2017-07-21T15:12:15.467Z,95416
2017-07-21T15:14:50.446Z,95394
2017-07-21T15:17:25.442Z,95394
2017-07-21T15:20:00.512Z,95390
2017-07-21T15:22:35.451Z,95386
2017-07-21T15:25:10.363Z,95376
2017-07-21T15:27:45.943Z,95365
2017-07-21T15:30:20.959Z,95372
2017-07-21T15:32:55.953Z,95113
2017-07-21T15:35:30.917Z,95368
2017-07-21T15:38:06.290Z,95366
2017-07-21T15:40:41.188Z,95365
2017-07-21T15:43:16.762Z,95383
2017-07-21T15:45:51.676Z,95362
2017-07-21T15:48:26.679Z,95354
2017-07-21T15:51:01.619Z,95356
2017-07-21T15:53:36.920Z,95353
2017-07-21T15:56:11.954Z,95348
2017-07-21T15:58:47.043Z,95347
2017-07-21T16:01:21.964Z,95336
2017-07-21T16:03:59.394Z,95328
2017-07-21T16:06:34.185Z,95340
2017-07-21T16:09:09.238Z,95323
2017-07-21T16:11:44.913Z,95319
2017-07-21T16:14:19.871Z,95316
2017-07-21T16:16:54.764Z,95322
2017-07-21T16:19:30.144Z,95317
2017-07-21T16:22:07.580Z,95318
2017-07-21T16:24:45.014Z,95322
2017-07-21T16:27:20.833Z,95323
2017-07-21T16:29:55.728Z,95319
2017-07-21T16:32:34.979Z,95316
2017-07-21T16:35:11.236Z,95321
2017-07-21T16:37:46.227Z,95333
2017-07-21T16:40:21.185Z,95332
2017-07-21T16:42:56.175Z,95325
2017-07-21T16:45:31.210Z,95342
2017-07-21T16:48:06.116Z,95338
2017-07-21T16:50:41.149Z,95349
2017-07-21T16:53:16.199Z,95339
2017-07-21T16:55:57.018Z,95335
2017-07-21T16:58:32.747Z,95328
2017-07-21T17:01:07.641Z,95334
2017-07-21T17:03:42.491Z,95340
2017-07-21T17:06:17.284Z,95327
2017-07-21T17:08:52.512Z,95318
2017-07-21T17:11:27.297Z,95320
2017-07-21T17:14:03.397Z,95312
2017-07-21T17:16:38.228Z,95317
2017-07-21T17:19:13.081Z,95308
2017-07-21T17:21:48.092Z,95313
2017-07-21T17:24:23.015Z,95303
2017-07-21T17:26:57.878Z,95300
2017-07-21T17:29:32.724Z,95298
2017-07-21T17:32:07.655Z,95299
2017-07-21T17:34:42.517Z,95293
2017-07-21T17:37:17.449Z,95288
2017-07-21T17:39:52.345Z,95288
2017-07-21T17:42:27.214Z,95296
2017-07-21T17:45:02.122Z,95297
2017-07-21T17:47:36.938Z,95298
2017-07-21T17:50:12.737Z,95304
2017-07-21T17:52:51.677Z,95304
2017-07-21T17:55:28.491Z,95307
2017-07-21T17:58:03.341Z,95302
2017-07-21T18:00:38.319Z,95304
2017-07-21T18:03:13.257Z,95307
2017-07-21T18:05:48.212Z,95308
2017-07-21T18:08:23.127Z,95313
2017-07-21T18:10:58.047Z,95305
2017-07-21T18:13:32.904Z,95308
2017-07-21T18:16:23.399Z,95299
2017-07-21T18:18:58.957Z,95302
2017-07-21T18:21:33.772Z,95308
2017-07-21T18:24:08.685Z,95305
2017-07-21T18:26:43.679Z,95307
2017-07-21T18:29:18.614Z,95313
2017-07-21T18:31:54.227Z,95303
2017-07-21T18:34:30.154Z,95293
2017-07-21T18:37:05.067Z,95290
2017-07-21T18:39:39.858Z,95294
2017-07-21T18:42:14.770Z,95303
2017-07-21T18:44:49.746Z,95303
2017-07-21T18:47:24.655Z,95294
2017-07-21T18:49:59.542Z,95292
2017-07-21T18:52:34.317Z,95299
2017-07-21T18:55:09.278Z,95301
2017-07-21T18:57:47.235Z,95294
2017-07-21T19:00:24.132Z,95301
2017-07-21T19:02:59.124Z,95298
2017-07-21T19:05:34.708Z,95291
2017-07-21T19:08:09.651Z,95295
2017-07-21T19:10:44.433Z,95291
2017-07-21T19:13:19.419Z,95291
2017-07-21T19:15:54.257Z,95290
2017-07-21T19:18:29.229Z,95289
2017-07-21T19:21:11.307Z,95283
2017-07-21T19:23:59.892Z,95273
2017-07-21T19:26:41.204Z,95272
2017-07-21T19:29:16.021Z,95266
2017-07-21T19:31:51.754Z,95268
2017-07-21T19:34:26.657Z,95269
2017-07-21T19:37:01.634Z,95268
2017-07-21T19:39:36.679Z,95267
2017-07-21T19:42:11.655Z,95279
2017-07-21T19:44:46.850Z,95270
2017-07-21T19:47:22.110Z,95266
2017-07-21T19:49:57.245Z,95266
2017-07-21T19:52:40.163Z,95271
2017-07-21T19:55:15.060Z,95269
2017-07-21T19:57:49.974Z,95271
2017-07-21T20:00:25.882Z,95271
2017-07-21T20:03:18.056Z,95276
2017-07-21T20:05:53.016Z,95277
2017-07-21T20:17:36.669Z,95289
2017-07-21T20:20:13.813Z,95287
2017-07-21T20:22:48.898Z,95291
2017-07-21T20:25:24.697Z,95293
2017-07-21T20:27:59.716Z,95295
2017-07-21T20:30:40.559Z,95293
2017-07-21T20:33:15.499Z,95298
2017-07-21T20:35:51.789Z,95305
2017-07-21T20:38:26.567Z,95287
2017-07-21T20:41:09.500Z,95287
2017-07-21T20:43:54.219Z,95290
2017-07-21T20:46:34.132Z,95289
2017-07-21T20:49:09.241Z,95287
2017-07-21T20:51:44.534Z,95356
2017-07-21T20:54:19.516Z,95301
2017-07-21T20:57:01.687Z,95299
2017-07-21T20:59:36.704Z,95306
2017-07-21T21:02:11.603Z,95306
2017-07-21T21:04:46.496Z,95316
2017-07-21T21:07:21.779Z,95327
2017-07-21T21:09:57.623Z,95334
2017-07-21T21:12:32.995Z,95339
2017-07-21T21:15:15.190Z,95351
2017-07-21T21:17:50.782Z,95406
2017-07-21T21:20:32.797Z,95392
2017-07-21T21:23:09.552Z,95408
2017-07-21T21:25:44.545Z,95418
2017-07-21T21:28:19.559Z,95423
2017-07-21T21:30:54.564Z,95447
2017-07-21T21:33:29.571Z,95488
2017-07-21T21:36:04.658Z,95500
2017-07-21T21:38:39.741Z,95507
2017-07-21T21:41:14.594Z,95506
2017-07-21T21:43:49.388Z,95497
2017-07-21T21:46:25.043Z,95497
2017-07-21T21:48:59.913Z,95493
2017-07-21T21:51:35.668Z,95495
2017-07-21T21:54:10.719Z,95485
2017-07-21T21:56:45.657Z,95485
2017-07-21T21:59:20.644Z,95469
2017-07-21T22:01:55.658Z,95477
2017-07-21T22:04:30.588Z,95486
2017-07-21T22:07:05.547Z,95491
2017-07-21T22:09:40.519Z,95494
2017-07-21T22:12:15.399Z,95504
2017-07-21T22:14:50.566Z,95501
2017-07-21T22:17:25.384Z,95507
2017-07-21T22:20:00.347Z,95539
2017-07-21T22:22:35.259Z,95527
2017-07-21T22:25:10.220Z,95521
2017-07-21T22:27:45.103Z,95526
2017-07-21T22:30:20.882Z,95528
2017-07-21T22:32:55.863Z,95530
2017-07-21T22:35:30.866Z,95525
2017-07-21T22:38:05.787Z,95508
2017-07-21T22:40:40.786Z,95503
2017-07-21T22:43:16.777Z,95499
2017-07-21T22:45:53.843Z,95497
2017-07-21T22:48:28.791Z,95503
2017-07-21T22:51:20.447Z,95509
2017-07-21T22:54:00.769Z,95486
2017-07-21T22:56:35.767Z,95491
2017-07-21T22:59:13.494Z,95482
2017-07-21T23:01:48.649Z,95490
2017-07-21T23:04:24.267Z,95476
2017-07-21T23:07:00.083Z,95467
2017-07-21T23:09:35.047Z,95466
2017-07-21T23:12:10.009Z,95458
2017-07-21T23:14:44.950Z,95437
2017-07-21T23:17:20.669Z,95430
2017-07-21T23:19:55.687Z,95430
2017-07-21T23:22:30.547Z,95427
2017-07-21T23:25:05.455Z,95429
2017-07-21T23:27:40.383Z,95412
2017-07-21T23:30:15.300Z,95422
2017-07-21T23:32:50.327Z,95406
2017-07-21T23:35:26.014Z,95402
2017-07-21T23:38:00.945Z,95413
2017-07-21T23:40:35.796Z,95407
2017-07-21T23:43:10.638Z,95412
2017-07-21T23:45:45.601Z,95429
2017-07-21T23:48:20.629Z,95433
2017-07-21T23:50:55.528Z,95434
2017-07-21T23:53:30.368Z,95443
2017-07-21T23:56:05.251Z,95437
2017-07-21T23:58:40.821Z,95436
